Time;durP1;ratioP1;P1;durP2;ratioP2;P2;SDS_P1;SDS_P2;PMS_P1;PMS_P2;Temp;Humidity;BMP_temperature;BMP_pressure;BME280_temperature;BME280_humidity;BME280_pressure;Samples;Min_cycle;Max_cycle;Signal;HPM_P1;HPM_P2
2021/03/19 00:01:42;;;;;;;71.70;32.83;;;1.50;99.90;;;;;;4988151;28;20077;-78
2021/03/19 00:04:09;;;;;;;72.47;32.58;;;1.50;99.90;;;;;;5005074;28;20144;-76
2021/03/19 00:06:36;;;;;;;71.97;35.70;;;1.40;99.90;;;;;;5004151;28;20056;-77
2021/03/19 00:09:06;;;;;;;68.53;34.47;;;1.40;99.90;;;;;;4988304;28;20233;-76
2021/03/19 00:11:33;;;;;;;70.10;33.78;;;1.30;99.90;;;;;;5002393;28;20085;-76
2021/03/19 00:14:00;;;;;;;69.13;34.63;;;1.40;99.90;;;;;;5004812;28;20144;-76
2021/03/19 00:16:26;;;;;;;75.25;35.30;;;1.40;99.90;;;;;;4996739;28;20057;-76
2021/03/19 00:18:53;;;;;;;60.65;31.13;;;1.40;99.90;;;;;;4969000;28;20089;-75
2021/03/19 00:21:19;;;;;;;52.50;27.08;;;1.30;99.90;;;;;;4984090;28;20163;-77
2021/03/19 00:23:47;;;;;;;60.72;31.48;;;1.30;99.90;;;;;;4991520;28;20050;-77
2021/03/19 00:26:14;;;;;;;55.55;29.33;;;1.20;99.90;;;;;;5004739;28;20096;-76
2021/03/19 00:28:40;;;;;;;58.38;30.15;;;1.20;99.90;;;;;;5021504;28;20054;-76
2021/03/19 00:31:07;;;;;;;59.05;29.13;;;1.10;99.90;;;;;;4988127;28;20054;-77
2021/03/19 00:33:33;;;;;;;57.08;29.77;;;1.10;99.90;;;;;;5008105;28;20100;-76
2021/03/19 00:36:00;;;;;;;61.20;29.17;;;1.10;99.90;;;;;;5007416;28;20379;-76
2021/03/19 00:38:26;;;;;;;61.70;29.40;;;1.10;99.90;;;;;;5024926;28;20140;-78
2021/03/19 00:40:53;;;;;;;66.38;31.58;;;1.00;99.90;;;;;;4991053;28;20046;-77
2021/03/19 00:43:19;;;;;;;60.65;30.02;;;1.00;99.90;;;;;;5008809;28;20112;-78
2021/03/19 00:45:47;;;;;;;63.08;29.40;;;1.00;99.90;;;;;;4998427;28;20061;-77
2021/03/19 00:48:13;;;;;;;64.90;31.05;;;0.90;99.90;;;;;;4976211;28;20506;-77
2021/03/19 00:50:51;;;;;;;65.60;31.55;;;0.90;99.90;;;;;;4991700;28;20042;-77
2021/03/19 00:53:17;;;;;;;68.45;28.95;;;0.90;99.90;;;;;;5007665;28;20069;-77
2021/03/19 00:55:43;;;;;;;65.10;29.35;;;0.90;99.90;;;;;;5008517;28;20302;-77
2021/03/19 00:58:10;;;;;;;60.95;30.23;;;0.90;99.90;;;;;;4990371;28;20085;-78
2021/03/19 01:00:37;;;;;;;74.13;32.13;;;0.80;99.90;;;;;;4973464;28;20129;-77
2021/03/19 01:03:04;;;;;;;77.32;33.40;;;0.80;99.90;;;;;;4988782;28;20045;-78
2021/03/19 01:05:40;;;;;;;72.97;31.40;;;0.80;99.90;;;;;;4981585;28;20521;-79
2021/03/19 01:08:08;;;;;;;67.20;32.05;;;0.80;99.90;;;;;;5002044;28;20081;-77
2021/03/19 01:10:56;;;;;;;71.07;30.00;;;0.70;99.90;;;;;;5024255;28;20054;-78
2021/03/19 01:13:26;;;;;;;63.58;28.25;;;0.80;99.90;;;;;;4977965;28;20129;-78
2021/03/19 01:15:54;;;;;;;65.22;32.10;;;0.80;99.90;;;;;;4990789;28;20050;-78
2021/03/19 01:18:23;;;;;;;69.18;33.55;;;0.80;99.90;;;;;;4994257;28;20414;-78
2021/03/19 01:21:03;;;;;;;63.05;29.77;;;0.90;99.90;;;;;;5007500;28;20057;-77
2021/03/19 01:23:29;;;;;;;65.50;30.95;;;0.90;99.90;;;;;;5008926;28;20061;-78
2021/03/19 01:25:56;;;;;;;66.03;31.52;;;1.00;99.90;;;;;;4991748;28;20074;-78
2021/03/19 01:28:22;;;;;;;63.28;32.15;;;1.10;99.90;;;;;;4992145;28;20089;-78
2021/03/19 01:30:48;;;;;;;65.65;32.42;;;1.10;99.90;;;;;;5026834;28;20711;-79
2021/03/19 01:33:15;;;;;;;59.47;28.15;;;1.10;99.90;;;;;;4993643;28;20065;-77
2021/03/19 01:35:43;;;;;;;60.75;28.38;;;1.00;99.90;;;;;;5007265;28;20156;-78
2021/03/19 01:38:11;;;;;;;32.28;16.15;;;1.00;99.90;;;;;;5009071;28;20108;-77
2021/03/19 01:40:40;;;;;;;61.67;27.92;;;1.00;99.90;;;;;;5008726;28;20120;-77
2021/03/19 01:43:09;;;;;;;62.72;30.20;;;1.00;99.90;;;;;;5007902;28;20115;-77
2021/03/19 01:46:14;;;;;;;59.88;27.08;;;1.00;99.90;;;;;;4991011;28;20061;-77
2021/03/19 01:49:19;;;;;;;49.42;26.38;;;1.10;99.90;;;;;;5003060;28;20048;-78
2021/03/19 01:52:23;;;;;;;55.75;27.08;;;1.00;99.90;;;;;;4993741;28;20069;-78
2021/03/19 01:55:26;;;;;;;63.88;28.80;;;1.00;99.90;;;;;;4995126;28;20062;-79
2021/03/19 01:58:31;;;;;;;65.88;30.85;;;1.00;99.90;;;;;;4993023;28;20049;-78
2021/03/19 02:01:35;;;;;;;65.05;30.77;;;0.90;99.90;;;;;;5008937;28;20046;-79
2021/03/19 02:04:39;;;;;;;62.83;30.73;;;0.90;99.90;;;;;;4974656;28;20141;-78
2021/03/19 02:07:43;;;;;;;66.07;31.30;;;0.90;99.90;;;;;;5002612;28;20101;-78
2021/03/19 02:10:47;;;;;;;70.22;28.77;;;0.80;99.90;;;;;;4994224;28;20077;-78
2021/03/19 02:13:51;;;;;;;66.38;30.50;;;0.80;99.90;;;;;;4991939;28;20112;-78
2021/03/19 02:16:55;;;;;;;70.50;32.13;;;0.70;99.90;;;;;;5002165;28;20409;-78
2021/03/19 02:20:00;;;;;;;74.53;32.25;;;0.70;99.90;;;;;;4974804;28;20137;-78
2021/03/19 02:23:03;;;;;;;67.38;33.13;;;0.60;99.90;;;;;;4990645;28;20057;-78
2021/03/19 02:26:07;;;;;;;76.13;33.08;;;0.60;99.90;;;;;;5006003;28;20054;-78
2021/03/19 02:29:11;;;;;;;75.63;34.17;;;0.60;99.90;;;;;;4990632;28;20491;-78
2021/03/19 02:32:06;;;;;;;81.40;32.22;;;0.60;99.90;;;;;;5004244;28;20046;-78
2021/03/19 02:34:54;;;;;;;76.43;34.20;;;0.60;99.90;;;;;;4976672;28;20137;-78
2021/03/19 02:37:23;;;;;;;71.93;34.10;;;0.60;99.90;;;;;;4962262;28;20054;-78
2021/03/19 02:39:50;;;;;;;71.32;32.83;;;0.70;99.90;;;;;;4970665;28;20495;-78
2021/03/19 02:42:19;;;;;;;74.22;32.92;;;0.60;99.90;;;;;;4962522;28;20042;-78
2021/03/19 02:44:45;;;;;;;76.28;32.60;;;0.60;99.90;;;;;;4952391;28;20105;-77
2021/03/19 02:47:12;;;;;;;84.30;36.83;;;0.50;99.90;;;;;;4950542;28;20057;-79
2021/03/19 02:49:39;;;;;;;81.93;34.78;;;0.50;99.90;;;;;;4954473;28;20149;-77
2021/03/19 02:52:20;;;;;;;77.85;34.63;;;0.50;99.90;;;;;;4988256;28;20052;-77
2021/03/19 02:54:46;;;;;;;82.85;35.28;;;0.40;99.90;;;;;;4973015;28;20104;-77
2021/03/19 02:57:13;;;;;;;81.15;34.63;;;0.40;99.90;;;;;;4989919;28;20499;-78
2021/03/19 02:59:39;;;;;;;86.70;36.55;;;0.40;99.90;;;;;;4974007;28;20059;-77
2021/03/19 03:02:06;;;;;;;88.07;31.88;;;0.30;99.90;;;;;;4971778;28;20156;-78
2021/03/19 03:04:32;;;;;;;79.50;34.70;;;0.40;99.90;;;;;;4957994;28;20127;-78
2021/03/19 03:06:59;;;;;;;100.40;38.78;;;0.30;99.90;;;;;;4999923;28;20041;-77
2021/03/19 03:09:32;;;;;;;89.63;35.97;;;0.30;99.90;;;;;;5001675;28;20128;-77
2021/03/19 03:11:59;;;;;;;92.90;38.17;;;0.20;99.90;;;;;;4989663;28;20050;-77
2021/03/19 03:14:28;;;;;;;89.65;34.40;;;0.20;99.90;;;;;;4988673;28;20050;-78
2021/03/19 03:17:03;;;;;;;88.75;37.35;;;0.20;99.90;;;;;;4997260;28;20103;-78
2021/03/19 03:19:30;;;;;;;93.28;36.38;;;0.20;99.90;;;;;;4988688;28;20148;-78
2021/03/19 03:21:58;;;;;;;98.03;33.30;;;0.20;99.90;;;;;;4987602;28;20726;-78
2021/03/19 03:24:26;;;;;;;91.95;35.60;;;0.10;99.90;;;;;;4988859;28;20221;-78
2021/03/19 03:26:53;;;;;;;84.03;33.33;;;0.10;99.90;;;;;;5020962;28;20041;-78
2021/03/19 03:29:21;;;;;;;87.45;34.70;;;0.10;99.90;;;;;;5021866;28;20558;-78
2021/03/19 03:31:48;;;;;;;82.22;34.70;;;0.00;99.90;;;;;;4988991;28;20140;-78
2021/03/19 03:34:15;;;;;;;91.28;38.17;;;0.10;99.90;;;;;;5004507;28;20048;-78
2021/03/19 03:36:41;;;;;;;92.55;38.22;;;0.20;99.90;;;;;;4988330;28;20502;-77
2021/03/19 03:39:12;;;;;;;88.53;37.35;;;0.20;99.90;;;;;;4988871;28;20054;-78
2021/03/19 03:41:39;;;;;;;96.15;38.45;;;0.20;99.90;;;;;;4985171;28;20050;-78
2021/03/19 03:44:08;;;;;;;100.03;39.25;;;0.20;99.90;;;;;;5007831;28;20050;-78
2021/03/19 03:46:34;;;;;;;91.00;36.95;;;0.20;99.90;;;;;;4986713;28;20136;-79
2021/03/19 03:49:00;;;;;;;92.00;36.50;;;0.20;99.90;;;;;;5005762;28;20042;-80
2021/03/19 03:51:28;;;;;;;86.55;35.50;;;0.20;99.90;;;;;;5005626;28;20121;-78
2021/03/19 03:53:57;;;;;;;99.32;37.70;;;0.20;99.90;;;;;;5004048;28;20507;-78
2021/03/19 03:56:25;;;;;;;89.50;37.22;;;0.20;99.90;;;;;;4997107;28;20055;-77
2021/03/19 03:58:52;;;;;;;93.70;36.47;;;0.20;99.90;;;;;;4966360;28;20138;-77
2021/03/19 04:01:19;;;;;;;97.07;38.78;;;0.20;99.90;;;;;;5014069;28;20738;-78
2021/03/19 04:03:46;;;;;;;95.30;37.22;;;0.20;99.90;;;;;;5004153;28;20061;-78
2021/03/19 04:06:13;;;;;;;99.60;37.78;;;0.10;99.90;;;;;;4972112;28;20627;-78
2021/03/19 04:08:39;;;;;;;92.28;37.25;;;0.20;99.90;;;;;;5004893;28;20111;-78
2021/03/19 04:11:10;;;;;;;94.53;37.25;;;0.20;99.90;;;;;;4989310;28;20046;-78
2021/03/19 04:13:37;;;;;;;84.32;34.83;;;0.20;99.90;;;;;;5000527;28;20058;-77
2021/03/19 04:16:04;;;;;;;76.97;34.25;;;0.20;99.90;;;;;;4986147;28;20499;-77
2021/03/19 04:18:31;;;;;;;82.00;36.08;;;0.20;99.90;;;;;;4988545;28;20043;-77
2021/03/19 04:21:00;;;;;;;78.05;34.13;;;0.20;99.90;;;;;;4987283;28;20108;-77
2021/03/19 04:23:30;;;;;;;83.68;36.00;;;0.20;99.90;;;;;;4991149;28;20577;-78
2021/03/19 04:25:57;;;;;;;74.32;32.65;;;0.30;99.90;;;;;;4991893;28;20066;-78
2021/03/19 04:28:29;;;;;;;78.72;34.55;;;0.30;99.90;;;;;;5006732;28;20133;-78
2021/03/19 04:30:56;;;;;;;80.55;35.15;;;0.30;99.90;;;;;;4991825;28;20050;-78
2021/03/19 04:33:26;;;;;;;77.75;34.70;;;0.30;99.90;;;;;;5008925;28;20084;-78
2021/03/19 04:35:59;;;;;;;65.50;26.63;;;0.30;99.90;;;;;;4995125;28;20052;-80
2021/03/19 04:38:25;;;;;;;56.38;25.15;;;0.20;99.90;;;;;;5004182;28;20069;-79
2021/03/19 04:40:52;;;;;;;61.33;24.48;;;0.20;99.90;;;;;;5004481;28;20042;-78
2021/03/19 04:43:18;;;;;;;59.08;26.52;;;0.20;99.90;;;;;;4993756;28;20049;-78
2021/03/19 04:45:45;;;;;;;61.72;25.30;;;0.10;99.90;;;;;;5003898;28;20069;-77
2021/03/19 04:48:12;;;;;;;62.13;26.80;;;0.10;99.90;;;;;;4956180;28;20149;-79
2021/03/19 04:50:40;;;;;;;62.95;26.60;;;0.20;99.90;;;;;;4972214;28;20049;-78
2021/03/19 04:53:06;;;;;;;57.15;25.75;;;0.10;99.90;;;;;;4988963;28;20418;-78
2021/03/19 04:55:33;;;;;;;66.10;25.42;;;0.00;99.90;;;;;;4972243;28;20057;-78
2021/03/19 04:57:59;;;;;;;61.35;25.33;;;-0.10;99.90;;;;;;4989022;28;20141;-78
2021/03/19 05:00:26;;;;;;;55.67;25.27;;;-0.10;99.90;;;;;;4982632;28;20050;-78
2021/03/19 05:02:53;;;;;;;55.92;26.67;;;0.00;99.90;;;;;;5003339;28;20041;-78
2021/03/19 05:05:28;;;;;;;65.55;27.33;;;0.00;99.90;;;;;;4981634;28;20141;-78
2021/03/19 05:07:55;;;;;;;60.27;26.83;;;0.00;99.90;;;;;;4972213;28;20149;-78
2021/03/19 05:10:26;;;;;;;65.38;27.27;;;-0.10;99.90;;;;;;4970622;28;20831;-77
2021/03/19 05:12:53;;;;;;;62.47;26.65;;;-0.10;99.90;;;;;;4985830;28;20740;-78
2021/03/19 05:15:20;;;;;;;69.03;24.95;;;-0.10;99.90;;;;;;4987041;28;20137;-79
2021/03/19 05:17:46;;;;;;;93.43;27.70;;;0.00;99.90;;;;;;5006859;28;20050;-78
2021/03/19 05:20:14;;;;;;;65.78;24.83;;;0.00;99.90;;;;;;4991562;28;20726;-79
2021/03/19 05:22:42;;;;;;;58.63;24.05;;;-0.10;99.90;;;;;;4991700;28;20085;-78
2021/03/19 05:25:12;;;;;;;59.58;24.77;;;-0.10;99.90;;;;;;4989142;28;20045;-79
2021/03/19 05:27:39;;;;;;;60.42;24.45;;;-0.20;99.90;;;;;;4981638;28;20061;-79
2021/03/19 05:30:08;;;;;;;60.13;24.23;;;-0.20;99.90;;;;;;4986491;28;20046;-79
2021/03/19 05:32:34;;;;;;;60.03;26.27;;;-0.10;99.90;;;;;;5007105;28;20104;-80
2021/03/19 05:35:05;;;;;;;51.83;22.63;;;-0.20;99.90;;;;;;4984069;28;20046;-77
2021/03/19 05:37:31;;;;;;;53.42;24.63;;;-0.20;99.90;;;;;;4996347;28;20054;-78
2021/03/19 05:39:58;;;;;;;57.42;26.23;;;-0.20;99.90;;;;;;4983517;28;20061;-77
2021/03/19 05:42:30;;;;;;;56.63;25.70;;;-0.30;99.90;;;;;;4990383;28;20596;-78
2021/03/19 05:45:26;;;;;;;57.25;28.08;;;-0.30;99.90;;;;;;4986363;28;20141;-78
2021/03/19 05:47:56;;;;;;;52.50;25.90;;;-0.30;99.90;;;;;;4984862;28;20148;-79
2021/03/19 05:50:29;;;;;;;52.10;23.98;;;-0.40;99.90;;;;;;5002495;28;20057;-77
2021/03/19 05:53:11;;;;;;;56.63;26.58;;;-0.40;99.90;;;;;;4995467;28;20419;-78
2021/03/19 05:55:39;;;;;;;50.42;26.38;;;-0.40;99.90;;;;;;4971161;28;20053;-78
2021/03/19 05:58:09;;;;;;;48.97;19.48;;;-0.40;99.90;;;;;;4960897;28;20054;-78
2021/03/19 06:00:36;;;;;;;48.95;21.88;;;-0.30;99.90;;;;;;4978423;28;20627;-77
2021/03/19 06:03:03;;;;;;;39.95;19.08;;;-0.30;99.90;;;;;;4969956;28;20033;-77
2021/03/19 06:05:30;;;;;;;43.85;21.92;;;-0.30;99.90;;;;;;4987840;28;20096;-78
2021/03/19 06:08:04;;;;;;;41.30;19.60;;;-0.30;99.90;;;;;;4996165;28;20097;-78
2021/03/19 06:10:33;;;;;;;39.35;20.90;;;-0.20;99.90;;;;;;4991012;28;20045;-78
2021/03/19 06:13:17;;;;;;;39.80;20.75;;;-0.20;99.90;;;;;;4985272;28;20422;-79
2021/03/19 06:15:55;;;;;;;37.38;18.08;;;-0.20;99.90;;;;;;5003275;28;20046;-78
2021/03/19 06:18:40;;;;;;;24.70;13.35;;;-0.20;99.90;;;;;;4971969;28;20080;-78
2021/03/19 06:21:10;;;;;;;36.25;15.98;;;-0.20;99.90;;;;;;4987047;28;20049;-78
2021/03/19 06:23:39;;;;;;;37.70;19.55;;;-0.20;99.90;;;;;;4986940;28;20052;-79
2021/03/19 06:26:21;;;;;;;36.35;18.73;;;-0.10;99.90;;;;;;4987249;28;20141;-78
2021/03/19 06:28:52;;;;;;;28.13;17.13;;;-0.10;99.90;;;;;;4988469;28;20085;-78
2021/03/19 06:31:30;;;;;;;36.25;19.75;;;-0.20;99.90;;;;;;5005793;28;20419;-79
2021/03/19 06:34:05;;;;;;;32.40;17.70;;;-0.10;99.90;;;;;;4991919;28;20054;-79
2021/03/19 06:36:33;;;;;;;35.58;18.02;;;-0.20;99.90;;;;;;4974561;28;20065;-77
2021/03/19 06:39:14;;;;;;;27.13;16.17;;;-0.10;99.90;;;;;;5002968;28;20108;-79
2021/03/19 06:41:40;;;;;;;28.90;17.23;;;-0.10;99.90;;;;;;4982194;28;20112;-78
2021/03/19 06:44:14;;;;;;;32.88;19.65;;;-0.10;99.90;;;;;;4972497;28;20050;-79
2021/03/19 06:46:44;;;;;;;30.55;17.75;;;0.00;99.90;;;;;;4998626;28;20044;-78
2021/03/19 06:49:12;;;;;;;26.67;17.65;;;0.00;99.90;;;;;;4986088;28;20043;-77
2021/03/19 06:51:45;;;;;;;31.48;17.00;;;0.00;99.90;;;;;;4983253;28;20124;-78
2021/03/19 06:54:16;;;;;;;26.63;17.95;;;0.00;99.90;;;;;;4991418;28;20069;-79
2021/03/19 06:57:04;;;;;;;27.90;18.70;;;0.10;99.90;;;;;;4989341;28;20041;-77
2021/03/19 06:59:48;;;;;;;27.80;16.23;;;0.10;99.90;;;;;;4990519;28;20061;-79
2021/03/19 07:02:24;;;;;;;28.13;17.42;;;0.20;99.90;;;;;;5002754;28;20050;-79
2021/03/19 07:05:30;;;;;;;35.17;19.88;;;0.20;99.90;;;;;;5002016;28;20080;-78
2021/03/19 07:08:33;;;;;;;25.13;16.77;;;0.30;99.90;;;;;;5000750;28;20049;-78
2021/03/19 07:11:11;;;;;;;34.38;20.80;;;0.40;99.90;;;;;;4988626;28;20137;-78
2021/03/19 07:13:56;;;;;;;27.75;19.75;;;0.40;99.90;;;;;;4987280;28;20537;-78
2021/03/19 07:16:26;;;;;;;26.98;17.63;;;0.60;99.90;;;;;;4994271;28;20109;-79
2021/03/19 07:19:15;;;;;;;29.30;19.02;;;0.50;99.90;;;;;;4995900;28;20047;-76
2021/03/19 07:21:54;;;;;;;37.53;23.17;;;0.40;99.90;;;;;;4995455;28;20073;-77
2021/03/19 07:24:29;;;;;;;39.25;22.95;;;0.40;99.90;;;;;;4983989;28;20049;-77
2021/03/19 07:27:25;;;;;;;42.60;25.67;;;0.50;99.90;;;;;;4988777;28;20509;-77
2021/03/19 07:30:20;;;;;;;38.95;24.40;;;0.60;99.90;;;;;;5001898;28;20073;-77
2021/03/19 07:33:23;;;;;;;39.83;23.90;;;0.60;99.90;;;;;;4986980;28;20133;-77
2021/03/19 07:36:20;;;;;;;41.90;21.95;;;0.60;99.90;;;;;;4985271;28;20042;-75
2021/03/19 07:39:02;;;;;;;33.50;21.45;;;0.40;99.90;;;;;;4981583;28;20065;-77
2021/03/19 07:41:43;;;;;;;45.88;24.35;;;0.40;99.90;;;;;;4987931;28;20045;-77
2021/03/19 07:44:36;;;;;;;37.13;21.58;;;0.40;99.90;;;;;;5007404;28;20045;-75
2021/03/19 07:47:46;;;;;;;42.15;24.05;;;0.50;99.90;;;;;;5008513;28;20240;-77
2021/03/19 07:50:36;;;;;;;38.25;23.92;;;0.70;99.90;;;;;;4992090;28;20046;-77
2021/03/19 07:53:42;;;;;;;30.38;21.30;;;0.90;99.90;;;;;;5008928;28;20042;-75
2021/03/19 07:56:34;;;;;;;39.15;22.92;;;1.00;99.90;;;;;;4992301;28;20099;-76
2021/03/19 07:59:05;;;;;;;33.15;22.75;;;1.00;99.90;;;;;;5008381;28;20093;-75
2021/03/19 08:01:44;;;;;;;31.70;21.70;;;0.70;99.90;;;;;;4991835;28;20045;-76
2021/03/19 08:04:34;;;;;;;28.27;19.92;;;0.70;99.90;;;;;;4990645;28;20056;-76
2021/03/19 08:07:16;;;;;;;33.92;23.25;;;0.60;99.90;;;;;;4973486;28;20065;-75
2021/03/19 08:09:58;;;;;;;33.10;22.45;;;0.60;99.90;;;;;;4973385;28;20145;-76
2021/03/19 08:12:34;;;;;;;30.23;21.95;;;0.80;99.90;;;;;;5004508;28;20311;-75
2021/03/19 08:15:23;;;;;;;27.70;21.27;;;1.20;99.90;;;;;;5004145;28;20053;-76
2021/03/19 08:18:01;;;;;;;23.45;20.30;;;1.40;99.90;;;;;;4991371;28;20383;-76
2021/03/19 08:20:51;;;;;;;22.25;19.10;;;1.30;99.90;;;;;;5009519;28;20104;-75
2021/03/19 08:23:30;;;;;;;38.78;23.13;;;1.30;99.90;;;;;;4994025;28;20058;-74
2021/03/19 08:25:56;;;;;;;36.03;25.23;;;1.60;99.90;;;;;;4988421;28;20377;-75
2021/03/19 08:28:42;;;;;;;27.90;22.92;;;1.40;99.90;;;;;;5015577;28;20046;-76
2021/03/19 08:31:41;;;;;;;29.90;20.73;;;1.40;99.90;;;;;;4999075;28;20120;-74
2021/03/19 08:34:21;;;;;;;26.02;20.33;;;1.70;99.90;;;;;;4969387;28;20046;-74
2021/03/19 08:36:51;;;;;;;23.33;19.35;;;1.90;99.90;;;;;;4998352;28;20054;-76
2021/03/19 08:39:36;;;;;;;26.35;20.67;;;1.70;99.90;;;;;;5001573;28;20057;-74
2021/03/19 08:42:19;;;;;;;22.92;20.48;;;1.60;99.90;;;;;;4997929;28;20114;-76
2021/03/19 08:44:47;;;;;;;26.83;20.85;;;1.50;99.90;;;;;;5008627;28;20081;-75
2021/03/19 08:47:18;;;;;;;32.00;21.50;;;1.60;99.90;;;;;;5004939;28;20043;-76
2021/03/19 08:49:48;;;;;;;22.88;19.50;;;1.90;99.90;;;;;;4999083;28;20045;-75
2021/03/19 08:52:35;;;;;;;22.40;20.05;;;2.10;99.90;;;;;;5005327;28;20092;-75
2021/03/19 08:55:17;;;;;;;23.52;20.48;;;2.30;99.90;;;;;;5007454;28;20384;-75
2021/03/19 08:57:44;;;;;;;25.42;21.75;;;2.70;99.90;;;;;;4987610;28;20058;-73
2021/03/19 09:00:39;;;;;;;26.02;22.45;;;2.70;99.90;;;;;;5004414;28;20566;-75
2021/03/19 09:03:31;;;;;;;22.75;20.38;;;2.60;99.90;;;;;;5001435;28;20077;-74
2021/03/19 09:06:04;;;;;;;22.88;20.67;;;2.70;99.90;;;;;;5001561;28;20061;-77
2021/03/19 09:08:43;;;;;;;24.17;21.67;;;2.60;99.90;;;;;;5005954;28;20041;-75
2021/03/19 09:11:19;;;;;;;24.17;21.63;;;2.70;99.90;;;;;;4980768;28;20042;-75
2021/03/19 09:14:31;;;;;;;25.23;22.63;;;2.30;99.90;;;;;;4998159;28;20588;-76
2021/03/19 09:16:58;;;;;;;25.30;22.58;;;2.60;99.90;;;;;;4994402;28;20053;-75
2021/03/19 09:19:45;;;;;;;24.67;22.15;;;2.80;99.90;;;;;;4991568;28;20556;-75
2021/03/19 09:22:24;;;;;;;25.02;22.63;;;2.80;99.90;;;;;;5001745;28;20057;-75
2021/03/19 09:25:13;;;;;;;24.17;21.85;;;3.10;99.90;;;;;;4998211;28;20050;-76
2021/03/19 09:28:01;;;;;;;23.27;21.15;;;3.10;99.90;;;;;;4982915;28;20136;-75
2021/03/19 09:30:39;;;;;;;23.67;21.60;;;2.50;99.90;;;;;;4987465;28;20166;-75
2021/03/19 09:33:11;;;;;;;22.40;20.08;;;2.50;99.90;;;;;;5003219;28;20703;-75
2021/03/19 09:35:44;;;;;;;22.15;20.25;;;2.50;99.90;;;;;;5000557;28;20699;-75
2021/03/19 09:38:36;;;;;;;21.65;19.90;;;2.90;99.90;;;;;;5003783;28;20052;-76
2021/03/19 09:41:07;;;;;;;22.52;20.73;;;3.40;99.90;;;;;;5014938;28;20049;-75
2021/03/19 09:43:47;;;;;;;22.50;20.70;;;3.70;99.90;;;;;;4985999;28;20490;-76
2021/03/19 09:46:15;;;;;;;22.30;20.48;;;3.90;99.90;;;;;;5015221;28;20062;-78
2021/03/19 09:48:59;;;;;;;22.30;20.50;;;4.20;99.90;;;;;;4991594;28;20054;-77
2021/03/19 09:51:44;;;;;;;21.98;20.40;;;4.80;99.90;;;;;;5001798;28;20088;-78
2021/03/19 09:54:27;;;;;;;23.02;21.15;;;4.50;99.90;;;;;;4999721;28;20042;-76
2021/03/19 09:57:03;;;;;;;23.50;21.77;;;4.50;99.90;;;;;;5005761;28;20133;-75
2021/03/19 09:59:34;;;;;;;22.33;20.63;;;4.70;99.90;;;;;;4987415;28;20136;-74
2021/03/19 10:02:02;;;;;;;24.00;20.50;;;4.60;99.90;;;;;;4989116;28;20137;-77
2021/03/19 10:04:36;;;;;;;20.30;18.85;;;4.40;99.90;;;;;;4998559;28;20046;-75
2021/03/19 10:07:15;;;;;;;20.23;18.58;;;4.30;99.90;;;;;;4971641;28;20050;-76
2021/03/19 10:09:46;;;;;;;20.90;19.40;;;4.50;99.90;;;;;;4984491;28;20037;-75
2021/03/19 10:12:23;;;;;;;22.55;20.30;;;4.50;99.90;;;;;;4998234;28;20042;-75
2021/03/19 10:14:52;;;;;;;20.83;19.35;;;4.70;99.90;;;;;;5000080;28;20045;-76
2021/03/19 10:17:39;;;;;;;22.25;20.45;;;5.10;99.90;;;;;;4990451;28;20082;-76
2021/03/19 10:20:27;;;;;;;20.88;19.20;;;5.40;99.90;;;;;;4979294;28;20066;-75
2021/03/19 10:23:11;;;;;;;20.13;18.63;;;5.00;99.90;;;;;;4998269;28;20427;-75
2021/03/19 10:25:45;;;;;;;21.40;19.80;;;4.50;99.90;;;;;;5002638;28;20053;-77
2021/03/19 10:28:11;;;;;;;22.30;20.50;;;4.10;99.90;;;;;;5005055;28;20132;-75
2021/03/19 10:30:54;;;;;;;22.83;21.02;;;4.00;99.90;;;;;;5005000;28;20139;-77
2021/03/19 10:33:36;;;;;;;22.60;20.90;;;3.90;99.90;;;;;;5004592;28;20137;-75
2021/03/19 10:36:06;;;;;;;21.80;20.23;;;4.30;99.90;;;;;;4987419;28;20066;-74
2021/03/19 10:38:37;;;;;;;22.80;20.58;;;4.70;99.90;;;;;;5005204;28;20156;-76
2021/03/19 10:41:28;;;;;;;21.63;19.92;;;4.80;99.90;;;;;;5004836;28;20046;-75
2021/03/19 10:44:08;;;;;;;20.55;18.95;;;4.70;99.90;;;;;;4989539;28;20498;-77
2021/03/19 10:47:01;;;;;;;21.58;19.85;;;4.70;99.90;;;;;;5021645;28;20054;-76
2021/03/19 10:49:47;;;;;;;20.10;18.63;;;4.60;99.90;;;;;;4998068;28;20645;-76
2021/03/19 10:52:35;;;;;;;19.83;18.27;;;4.50;99.90;;;;;;5010855;28;20138;-76
2021/03/19 10:55:26;;;;;;;18.92;17.42;;;4.50;99.90;;;;;;5022106;28;20053;-77
2021/03/19 10:58:19;;;;;;;17.80;16.65;;;5.40;99.90;;;;;;5003975;28;20046;-76
2021/03/19 11:00:49;;;;;;;17.58;16.58;;;5.60;99.90;;;;;;4984512;28;20647;-76
2021/03/19 11:03:31;;;;;;;17.13;16.02;;;4.90;99.90;;;;;;4991386;28;20083;-75
2021/03/19 11:06:07;;;;;;;17.27;16.08;;;4.20;99.90;;;;;;4981159;28;20045;-76
2021/03/19 11:08:36;;;;;;;17.95;16.85;;;4.20;99.90;;;;;;5002387;28;20053;-75
2021/03/19 11:11:03;;;;;;;16.85;15.73;;;4.00;99.90;;;;;;5000631;28;20062;-75
2021/03/19 11:13:32;;;;;;;16.75;15.75;;;4.20;99.90;;;;;;5017818;28;20145;-74
2021/03/19 11:16:36;;;;;;;17.85;16.85;;;4.60;99.90;;;;;;4990975;28;20142;-75
2021/03/19 11:19:10;;;;;;;16.83;15.55;;;4.60;99.90;;;;;;4969749;28;20097;-74
2021/03/19 11:21:39;;;;;;;14.50;13.60;;;5.10;99.90;;;;;;4986620;28;20566;-74
2021/03/19 11:24:21;;;;;;;15.45;14.65;;;5.20;99.90;;;;;;4985610;28;20133;-76
2021/03/19 11:27:21;;;;;;;16.42;15.30;;;5.10;99.90;;;;;;4991809;28;20128;-74
2021/03/19 11:29:49;;;;;;;15.20;14.40;;;5.30;99.90;;;;;;4993368;28;20540;-76
2021/03/19 11:32:15;;;;;;;14.38;13.57;;;5.80;99.90;;;;;;4996796;28;20042;-76
2021/03/19 11:34:48;;;;;;;15.20;14.20;;;6.20;99.90;;;;;;4999001;28;20053;-75
2021/03/19 11:37:32;;;;;;;14.65;13.95;;;5.90;99.90;;;;;;4962287;28;20124;-75
2021/03/19 11:40:08;;;;;;;17.10;15.90;;;6.20;99.90;;;;;;5002101;28;20303;-76
2021/03/19 11:42:46;;;;;;;16.55;15.68;;;6.40;99.90;;;;;;4984996;28;20078;-75
2021/03/19 11:45:12;;;;;;;14.80;14.10;;;6.80;99.90;;;;;;5016464;28;20050;-76
2021/03/19 11:47:57;;;;;;;16.20;15.20;;;6.90;99.90;;;;;;5001490;28;20515;-77
2021/03/19 11:50:42;;;;;;;15.13;14.32;;;6.90;99.90;;;;;;4972865;28;20077;-76
2021/03/19 11:53:16;;;;;;;14.52;13.70;;;6.10;99.90;;;;;;4990308;28;20070;-76
2021/03/19 11:55:49;;;;;;;14.50;13.70;;;6.10;99.90;;;;;;4994992;28;20089;-76
2021/03/19 11:58:19;;;;;;;15.73;14.80;;;5.90;99.90;;;;;;4999404;28;20050;-76
2021/03/19 12:00:46;;;;;;;15.00;14.20;;;5.50;99.90;;;;;;5003204;28;20053;-76
2021/03/19 12:03:14;;;;;;;15.43;14.60;;;6.00;99.90;;;;;;5005031;28;20061;-76
2021/03/19 12:05:41;;;;;;;15.80;14.55;;;6.10;99.90;;;;;;5000414;28;20050;-76
2021/03/19 12:08:08;;;;;;;15.40;14.70;;;5.80;99.90;;;;;;4999716;28;20405;-76
2021/03/19 12:10:35;;;;;;;14.57;13.88;;;5.60;99.90;;;;;;4985884;28;20133;-75
2021/03/19 12:13:15;;;;;;;16.55;15.73;;;5.60;99.90;;;;;;5005862;28;20058;-76
2021/03/19 12:15:42;;;;;;;15.80;14.90;;;6.10;99.90;;;;;;5000580;28;20078;-75
2021/03/19 12:18:11;;;;;;;14.38;13.50;;;6.40;99.90;;;;;;4999901;28;20145;-76
2021/03/19 12:20:38;;;;;;;15.65;14.77;;;6.60;99.90;;;;;;4988568;28;20054;-77
2021/03/19 12:23:05;;;;;;;15.07;14.18;;;6.60;99.90;;;;;;4989650;28;20115;-76
2021/03/19 12:25:38;;;;;;;15.38;14.57;;;6.40;99.90;;;;;;5021600;28;20069;-77
2021/03/19 12:28:11;;;;;;;14.38;13.57;;;6.10;99.90;;;;;;4983390;28;20053;-76
2021/03/19 12:30:37;;;;;;;13.85;13.15;;;5.90;99.90;;;;;;4955313;28;20388;-77
2021/03/19 12:33:05;;;;;;;13.60;12.80;;;5.90;99.90;;;;;;5004549;28;20100;-77
2021/03/19 12:35:32;;;;;;;14.20;13.50;;;5.80;99.90;;;;;;5003623;28;20042;-77
2021/03/19 12:37:58;;;;;;;14.50;13.70;;;5.60;99.90;;;;;;5007904;28;20059;-77
2021/03/19 12:40:26;;;;;;;14.30;13.57;;;5.50;99.90;;;;;;5020396;28;20149;-74
2021/03/19 12:42:54;;;;;;;16.20;15.30;;;5.50;99.90;;;;;;4987218;28;20065;-76
2021/03/19 12:45:24;;;;;;;14.32;13.73;;;5.40;99.90;;;;;;5021141;28;20056;-76
2021/03/19 12:47:51;;;;;;;13.40;12.80;;;5.70;99.90;;;;;;5005483;28;20058;-76
2021/03/19 12:50:22;;;;;;;14.00;13.40;;;5.50;99.90;;;;;;4988946;28;20042;-78
2021/03/19 12:52:49;;;;;;;13.32;12.82;;;5.70;99.90;;;;;;4992360;28;20037;-76
2021/03/19 12:55:16;;;;;;;13.30;12.45;;;5.50;99.90;;;;;;5002276;28;20041;-75
2021/03/19 12:57:43;;;;;;;13.43;12.73;;;5.50;99.90;;;;;;4978712;28;20089;-76
2021/03/19 13:00:12;;;;;;;14.23;13.57;;;5.60;99.90;;;;;;4997818;28;20126;-75
2021/03/19 13:02:39;;;;;;;13.15;12.55;;;5.70;99.90;;;;;;5006242;28;20057;-76
2021/03/19 13:05:06;;;;;;;13.48;12.77;;;5.70;99.90;;;;;;5007175;28;20140;-76
2021/03/19 13:07:33;;;;;;;12.85;12.35;;;6.00;99.90;;;;;;4989881;28;20050;-74
2021/03/19 13:10:00;;;;;;;13.02;12.43;;;6.50;99.90;;;;;;4998730;28;20126;-77
2021/03/19 13:12:26;;;;;;;13.57;12.98;;;6.90;99.90;;;;;;5011566;28;20526;-76
2021/03/19 13:14:56;;;;;;;13.73;13.13;;;6.70;99.90;;;;;;5013657;28;20083;-76
2021/03/19 13:17:22;;;;;;;13.88;13.20;;;6.80;99.90;;;;;;5008989;28;20074;-78